createdAt,value
2023-08-11T00:00:44.926Z,24.97
2023-08-11T00:03:51.410Z,24.95
2023-08-11T00:06:58.905Z,24.87
2023-08-11T00:13:20.936Z,24.97
2023-08-11T00:16:26.680Z,25.10
2023-08-11T00:19:32.343Z,25.08
2023-08-11T00:22:38.216Z,24.97
2023-08-11T00:25:43.475Z,24.92
2023-08-11T00:28:49.417Z,24.98
2023-08-11T00:31:56.011Z,25.01
2023-08-11T00:35:01.700Z,24.87
2023-08-11T00:38:00.708Z,24.92
2023-08-11T00:41:07.419Z,24.90
2023-08-11T00:44:12.560Z,25.10
2023-08-11T00:47:19.063Z,25.06
2023-08-11T00:50:26.626Z,25.03
2023-08-11T00:53:33.087Z,24.77
2023-08-11T00:56:38.347Z,24.82
2023-08-11T00:59:43.236Z,24.60
2023-08-11T01:02:50.457Z,24.86
2023-08-11T01:05:59.650Z,24.97
2023-08-11T01:09:20.182Z,25.38
2023-08-11T01:12:56.413Z,25.21
2023-08-11T01:16:09.171Z,25.32
2023-08-11T01:19:15.756Z,25.28
2023-08-11T01:22:29.227Z,25.05
2023-08-11T01:25:35.323Z,25.06
2023-08-11T01:28:41.072Z,25.26
2023-08-11T01:31:48.237Z,25.38
2023-08-11T01:34:55.516Z,25.38
2023-08-11T01:38:03.916Z,25.56
2023-08-11T01:41:09.244Z,25.57
2023-08-11T01:44:15.131Z,25.35
2023-08-11T01:47:20.812Z,25.56
2023-08-11T01:50:29.533Z,25.48
2023-08-11T01:53:36.325Z,25.40
2023-08-11T01:56:42.964Z,25.47
2023-08-11T01:59:49.423Z,25.38
2023-08-11T02:02:57.236Z,25.70
2023-08-11T02:06:06.456Z,25.85
2023-08-11T02:09:20.904Z,25.77
2023-08-11T02:12:26.572Z,25.48
2023-08-11T02:15:31.598Z,25.91
2023-08-11T02:18:38.231Z,26.07
2023-08-11T02:21:46.026Z,25.89
2023-08-11T02:24:51.126Z,25.69
2023-08-11T02:27:58.116Z,25.63
2023-08-11T02:31:03.619Z,25.81
2023-08-11T02:34:11.839Z,25.76
2023-08-11T02:37:18.427Z,25.54
2023-08-11T02:40:27.903Z,25.39
2023-08-11T02:43:34.831Z,25.32
2023-08-11T02:46:39.596Z,25.37
2023-08-11T02:49:48.219Z,25.27
2023-08-11T02:52:53.954Z,25.28
2023-08-11T02:56:00.712Z,25.41
2023-08-11T02:59:06.139Z,25.25
2023-08-11T03:02:13.092Z,25.58
2023-08-11T03:05:20.091Z,25.45
2023-08-11T03:08:27.185Z,25.10
2023-08-11T03:11:32.793Z,25.68
2023-08-11T03:14:37.893Z,25.77
2023-08-11T03:17:44.158Z,25.57
2023-08-11T03:20:49.861Z,25.66
2023-08-11T03:23:55.462Z,25.91
2023-08-11T03:27:01.244Z,25.86
2023-08-11T03:30:07.150Z,26.00
2023-08-11T03:33:12.617Z,26.79
2023-08-11T03:36:22.643Z,26.54
2023-08-11T03:39:28.666Z,26.61
2023-08-11T03:42:34.228Z,26.74
2023-08-11T03:45:40.886Z,26.93
2023-08-11T03:48:46.562Z,26.75
2023-08-11T03:51:53.172Z,26.61
2023-08-11T03:55:00.061Z,26.74
2023-08-11T03:58:05.466Z,26.47
2023-08-11T04:01:12.486Z,26.59
2023-08-11T04:04:18.556Z,26.70
2023-08-11T04:07:24.422Z,25.91
2023-08-11T04:10:34.389Z,25.91
2023-08-11T04:13:40.494Z,25.75
2023-08-11T04:16:45.788Z,26.01
2023-08-11T04:19:51.275Z,26.01
2023-08-11T04:22:58.746Z,26.05
2023-08-11T04:26:06.744Z,25.62
2023-08-11T04:29:11.795Z,25.83
2023-08-11T04:32:18.261Z,25.95
2023-08-11T04:35:24.218Z,26.17
2023-08-11T04:38:30.282Z,26.25
2023-08-11T04:41:36.340Z,26.27
2023-08-11T04:44:42.439Z,26.40
2023-08-11T04:47:53.050Z,26.42
2023-08-11T04:50:59.924Z,26.44
2023-08-11T04:54:08.747Z,26.48
2023-08-11T04:57:14.992Z,26.68
2023-08-11T05:00:24.435Z,26.96
2023-08-11T05:03:30.438Z,27.13
2023-08-11T05:06:36.822Z,27.31
2023-08-11T05:09:46.361Z,27.25
2023-08-11T05:12:51.278Z,27.28
2023-08-11T05:15:58.246Z,27.33
2023-08-11T05:19:03.925Z,27.50
2023-08-11T05:22:09.456Z,27.36
2023-08-11T05:25:15.093Z,27.42
2023-08-11T05:28:20.957Z,27.45
2023-08-11T05:31:26.816Z,27.45
2023-08-11T05:34:32.990Z,27.67
2023-08-11T05:37:39.560Z,27.85
2023-08-11T05:40:45.950Z,27.99
2023-08-11T05:43:52.499Z,28.00
2023-08-11T05:46:58.747Z,28.01
2023-08-11T05:50:04.624Z,28.14
2023-08-11T05:53:11.374Z,28.14
2023-08-11T05:56:18.918Z,27.87
2023-08-11T05:59:24.721Z,28.02
2023-08-11T06:02:31.421Z,27.78
2023-08-11T06:05:37.038Z,27.66
2023-08-11T06:08:44.478Z,27.51
2023-08-11T06:11:50.366Z,27.51
2023-08-11T06:14:55.822Z,27.29
2023-08-11T06:18:06.662Z,27.33
2023-08-11T06:21:14.344Z,27.50
2023-08-11T06:24:21.947Z,27.43
2023-08-11T06:27:31.690Z,27.40
2023-08-11T06:30:37.927Z,27.26
2023-08-11T06:33:43.992Z,27.28
2023-08-11T06:36:50.048Z,27.25
2023-08-11T06:39:55.962Z,27.85
2023-08-11T06:43:02.080Z,28.08
2023-08-11T06:46:11.099Z,28.05
2023-08-11T06:49:23.257Z,28.12
2023-08-11T06:52:29.754Z,28.22
2023-08-11T06:55:34.962Z,28.01
2023-08-11T06:58:40.397Z,28.11
2023-08-11T07:01:46.830Z,27.97
2023-08-11T07:04:52.758Z,27.91
2023-08-11T07:07:59.586Z,28.06
2023-08-11T07:11:05.423Z,28.21
2023-08-11T07:14:11.897Z,28.35
2023-08-11T07:17:17.588Z,28.34
2023-08-11T07:20:23.714Z,28.15
2023-08-11T07:23:29.373Z,28.12
2023-08-11T07:26:34.787Z,27.77
2023-08-11T07:29:40.759Z,27.58
2023-08-11T07:32:46.799Z,27.62
2023-08-11T07:35:53.075Z,27.53
2023-08-11T07:39:12.761Z,27.78
2023-08-11T07:42:08.690Z,27.66
2023-08-11T07:45:15.224Z,27.20
2023-08-11T07:48:20.213Z,27.04
2023-08-11T07:51:25.413Z,26.92
2023-08-11T07:54:31.494Z,26.91
2023-08-11T07:57:37.634Z,26.88
2023-08-11T08:00:43.655Z,26.89
2023-08-11T08:03:49.211Z,26.93
2023-08-11T08:06:55.021Z,26.82
2023-08-11T08:10:00.982Z,26.78
2023-08-11T08:13:08.106Z,26.27
2023-08-11T08:16:13.879Z,26.39
2023-08-11T08:19:20.254Z,26.40
2023-08-11T08:22:27.929Z,26.33
2023-08-11T08:25:32.955Z,26.31
2023-08-11T08:28:38.855Z,26.37
2023-08-11T08:31:45.254Z,26.29
2023-08-11T08:34:51.425Z,26.30
2023-08-11T08:37:57.888Z,26.12
2023-08-11T08:41:04.007Z,26.27
2023-08-11T08:44:10.893Z,26.33
2023-08-11T08:47:16.994Z,26.13
2023-08-11T08:50:23.638Z,26.02
2023-08-11T08:53:29.267Z,26.08
2023-08-11T08:56:34.983Z,25.94
2023-08-11T08:59:41.807Z,25.72
2023-08-11T09:02:47.907Z,25.64
2023-08-11T09:05:55.664Z,25.43
2023-08-11T09:09:03.341Z,25.45
2023-08-11T09:12:12.772Z,25.07
2023-08-11T09:15:27.005Z,25.07
2023-08-11T09:18:27.134Z,25.00
2023-08-11T09:21:35.240Z,25.02
2023-08-11T09:24:40.353Z,25.16
2023-08-11T09:27:47.179Z,25.14
2023-08-11T09:30:55.861Z,25.32
2023-08-11T09:34:01.778Z,25.24
2023-08-11T09:37:07.824Z,25.08
2023-08-11T09:40:13.520Z,24.98
2023-08-11T09:43:19.141Z,24.90
2023-08-11T09:46:27.842Z,24.78
2023-08-11T09:49:31.931Z,24.82
2023-08-11T09:52:37.864Z,24.64
2023-08-11T09:55:44.517Z,24.58
2023-08-11T09:58:53.623Z,24.73
2023-08-11T10:02:00.319Z,24.74
2023-08-11T10:05:14.949Z,25.02
2023-08-11T10:08:21.653Z,25.14
2023-08-11T10:11:28.021Z,25.19
2023-08-11T10:14:35.005Z,25.22
2023-08-11T10:17:40.958Z,25.54
2023-08-11T10:20:47.680Z,25.97
2023-08-11T10:23:52.744Z,25.85
2023-08-11T10:26:59.127Z,25.79
2023-08-11T10:30:05.200Z,25.92
2023-08-11T10:33:22.041Z,26.12
2023-08-11T10:36:22.013Z,26.32
2023-08-11T10:39:21.707Z,26.47
2023-08-11T10:42:31.395Z,26.46
2023-08-11T10:45:37.449Z,26.54
2023-08-11T10:48:43.796Z,26.65
2023-08-11T10:51:52.573Z,26.66
2023-08-11T10:55:06.513Z,26.96
2023-08-11T10:58:30.624Z,26.91
2023-08-11T11:01:36.316Z,27.19
2023-08-11T11:04:48.354Z,27.24
2023-08-11T11:07:54.686Z,27.49
2023-08-11T11:11:00.474Z,27.60
2023-08-11T11:14:07.040Z,27.70
2023-08-11T11:17:16.407Z,27.68
2023-08-11T11:20:23.741Z,27.96
2023-08-11T11:23:29.158Z,27.88
2023-08-11T11:26:42.946Z,27.58
2023-08-11T11:29:47.746Z,27.48
2023-08-11T11:32:57.270Z,27.47
2023-08-11T11:36:04.188Z,27.19
2023-08-11T11:39:11.052Z,27.07
2023-08-11T11:42:25.975Z,26.87
2023-08-11T11:45:31.529Z,26.93
2023-08-11T11:48:31.123Z,26.93
2023-08-11T11:51:24.015Z,27.03
2023-08-11T11:54:30.808Z,27.29
2023-08-11T11:57:37.666Z,27.30
2023-08-11T12:00:43.480Z,27.37
2023-08-11T12:03:50.774Z,27.56
2023-08-11T12:06:58.000Z,27.67
2023-08-11T12:10:01.603Z,28.02
2023-08-11T12:13:09.103Z,28.17
2023-08-11T12:16:15.559Z,28.24
2023-08-11T12:19:22.327Z,28.32
2023-08-11T12:22:29.021Z,28.13
2023-08-11T12:25:35.015Z,28.02
2023-08-11T12:28:41.391Z,27.90
2023-08-11T12:31:46.394Z,27.88
2023-08-11T12:34:51.511Z,27.58
2023-08-11T12:37:57.379Z,27.67
2023-08-11T12:41:03.766Z,27.85
2023-08-11T12:44:09.867Z,27.93
2023-08-11T12:47:15.600Z,28.24
2023-08-11T12:50:22.999Z,28.38
2023-08-11T12:53:28.074Z,28.45
2023-08-11T12:56:33.818Z,28.58
2023-08-11T12:59:39.560Z,28.62
2023-08-11T13:02:46.080Z,28.49
2023-08-11T13:05:51.626Z,28.52
2023-08-11T13:08:58.475Z,28.72
2023-08-11T13:12:04.616Z,28.37
2023-08-11T13:15:10.148Z,28.26
2023-08-11T13:18:15.854Z,28.35
2023-08-11T13:21:22.294Z,28.30
2023-08-11T13:24:28.142Z,28.30
2023-08-11T13:27:34.625Z,28.45
2023-08-11T13:30:43.465Z,28.63
2023-08-11T13:33:48.123Z,28.66
2023-08-11T13:36:53.951Z,28.62
2023-08-11T13:39:59.455Z,28.68
2023-08-11T13:43:04.845Z,28.72
2023-08-11T13:46:11.390Z,28.61
2023-08-11T13:49:10.557Z,28.42
2023-08-11T13:52:15.789Z,28.44
2023-08-11T13:55:20.714Z,28.43
2023-08-11T13:58:26.586Z,28.56
2023-08-11T14:01:32.661Z,28.61
2023-08-11T14:04:39.671Z,28.81
2023-08-11T14:07:45.904Z,29.03
2023-08-11T14:10:52.275Z,29.01
2023-08-11T14:13:59.223Z,28.95
2023-08-11T14:17:05.545Z,28.34
2023-08-11T14:20:11.000Z,28.37
2023-08-11T14:23:17.257Z,28.19
2023-08-11T14:26:24.555Z,27.99
2023-08-11T14:29:30.254Z,27.95
2023-08-11T14:32:36.716Z,27.94
2023-08-11T14:35:45.607Z,27.78
2023-08-11T14:38:51.258Z,27.72
2023-08-11T14:41:57.217Z,27.48
2023-08-11T14:45:02.700Z,27.42
2023-08-11T14:48:08.677Z,27.43
2023-08-11T14:51:13.955Z,27.34
2023-08-11T14:54:19.323Z,27.10
2023-08-11T14:57:26.205Z,27.17
2023-08-11T15:00:32.786Z,27.38
2023-08-11T15:03:41.156Z,27.43
2023-08-11T15:06:46.790Z,27.23
2023-08-11T15:09:53.501Z,27.18
2023-08-11T15:13:00.673Z,27.29
2023-08-11T15:16:06.698Z,27.05
2023-08-11T15:19:12.793Z,27.08
2023-08-11T15:22:18.102Z,27.19
2023-08-11T15:25:23.839Z,27.12
2023-08-11T15:28:30.036Z,27.03
2023-08-11T15:31:35.992Z,27.04
2023-08-11T15:34:42.518Z,26.87
2023-08-11T15:37:47.013Z,27.21
2023-08-11T15:40:53.474Z,27.25
2023-08-11T15:43:52.866Z,27.06
2023-08-11T15:46:59.367Z,27.03
2023-08-11T15:50:04.202Z,27.02
2023-08-11T15:53:10.821Z,26.95
2023-08-11T15:56:15.803Z,26.98
2023-08-11T15:59:21.794Z,27.04
2023-08-11T16:02:29.023Z,27.15
2023-08-11T16:05:35.368Z,27.40
2023-08-11T16:08:42.362Z,27.34
2023-08-11T16:11:49.879Z,27.28
2023-08-11T16:14:55.836Z,27.20
2023-08-11T16:18:02.999Z,27.22
2023-08-11T16:21:10.990Z,27.05
2023-08-11T16:24:16.659Z,26.91
2023-08-11T16:27:22.506Z,26.81
2023-08-11T16:30:28.735Z,26.80
2023-08-11T16:33:35.475Z,26.80
2023-08-11T16:36:42.011Z,26.63
2023-08-11T16:39:47.712Z,26.30
2023-08-11T16:42:47.456Z,26.32
2023-08-11T16:45:53.155Z,26.44
2023-08-11T16:48:58.771Z,26.37
2023-08-11T16:52:04.881Z,26.29
2023-08-11T16:55:11.396Z,26.27
2023-08-11T16:58:16.212Z,26.53
2023-08-11T17:01:22.310Z,26.33
2023-08-11T17:04:27.962Z,26.32
2023-08-11T17:07:33.626Z,26.17
2023-08-11T17:10:53.082Z,25.97
2023-08-11T17:13:59.045Z,26.04
2023-08-11T17:17:04.988Z,26.32
2023-08-11T17:20:12.669Z,26.03
2023-08-11T17:23:19.337Z,26.00
2023-08-11T17:26:24.522Z,26.08
2023-08-11T17:29:31.376Z,26.17
2023-08-11T17:32:37.607Z,26.18
2023-08-11T17:35:43.235Z,25.85
2023-08-11T17:38:49.625Z,25.81
2023-08-11T17:41:55.417Z,25.72
2023-08-11T17:45:00.930Z,25.65
2023-08-11T17:48:07.741Z,25.63
2023-08-11T17:51:14.410Z,25.70
2023-08-11T17:54:20.884Z,25.84
2023-08-11T17:57:26.373Z,25.71
2023-08-11T18:00:32.397Z,25.58
2023-08-11T18:03:36.846Z,25.51
2023-08-11T18:06:35.276Z,25.25
2023-08-11T18:09:44.060Z,25.91
2023-08-11T18:12:50.612Z,26.03
2023-08-11T18:15:56.409Z,25.63
2023-08-11T18:19:02.866Z,25.24
2023-08-11T18:22:08.888Z,25.04
2023-08-11T18:25:16.064Z,24.93
2023-08-11T18:28:22.609Z,24.80
2023-08-11T18:31:27.824Z,24.80
2023-08-11T18:34:33.833Z,24.82
2023-08-11T18:37:39.747Z,25.05
2023-08-11T18:40:44.591Z,25.10
2023-08-11T18:43:49.862Z,25.02
2023-08-11T18:46:56.745Z,25.03
2023-08-11T18:50:02.557Z,25.22
2023-08-11T18:53:08.267Z,25.03
2023-08-11T18:56:14.252Z,25.13
2023-08-11T18:59:20.532Z,24.87
2023-08-11T19:02:27.147Z,24.79
2023-08-11T19:05:33.554Z,24.91
2023-08-11T19:08:40.187Z,24.78
2023-08-11T19:11:46.435Z,24.69
2023-08-11T19:14:52.227Z,24.84
2023-08-11T19:17:57.851Z,24.71
2023-08-11T19:21:03.416Z,24.70
2023-08-11T19:24:08.546Z,24.83
2023-08-11T19:27:14.988Z,24.80
2023-08-11T19:30:20.868Z,24.67
2023-08-11T19:33:26.189Z,24.87
2023-08-11T19:36:32.991Z,24.68
2023-08-11T19:39:39.399Z,24.79
2023-08-11T19:42:45.184Z,25.04
2023-08-11T19:45:50.714Z,25.01
2023-08-11T19:48:57.131Z,24.88
2023-08-11T19:52:02.593Z,25.20
2023-08-11T19:55:08.345Z,24.95
2023-08-11T19:58:13.568Z,24.49
2023-08-11T20:01:20.248Z,24.73
2023-08-11T20:04:20.339Z,24.77
2023-08-11T20:07:26.808Z,24.89
2023-08-11T20:10:45.754Z,24.97
2023-08-11T20:13:51.308Z,24.96
2023-08-11T20:16:57.864Z,24.96
2023-08-11T20:20:04.822Z,25.08
2023-08-11T20:23:10.660Z,25.34
2023-08-11T20:26:16.551Z,25.37
2023-08-11T20:29:15.517Z,25.39
2023-08-11T20:32:22.327Z,25.81
2023-08-11T20:35:28.072Z,25.25
2023-08-11T20:38:38.870Z,25.47
2023-08-11T20:41:43.174Z,25.22
2023-08-11T20:44:49.389Z,24.79
2023-08-11T20:47:55.259Z,24.68
2023-08-11T20:51:06.710Z,24.80
2023-08-11T20:54:12.231Z,24.74
2023-08-11T20:57:18.254Z,24.56
2023-08-11T21:00:24.808Z,24.37
2023-08-11T21:03:30.872Z,24.29
2023-08-11T21:06:36.166Z,24.31
2023-08-11T21:09:43.210Z,24.10
2023-08-11T21:12:49.072Z,24.23
2023-08-11T21:15:55.589Z,24.39
2023-08-11T21:19:02.177Z,24.33
2023-08-11T21:22:08.638Z,24.09
2023-08-11T21:25:15.397Z,24.06
2023-08-11T21:28:22.069Z,23.86
2023-08-11T21:31:28.704Z,23.75
2023-08-11T21:34:34.428Z,23.76
2023-08-11T21:37:40.442Z,23.79
2023-08-11T21:40:46.441Z,23.87
2023-08-11T21:43:53.041Z,23.97
2023-08-11T21:46:58.407Z,23.74
2023-08-11T21:50:04.794Z,23.62
2023-08-11T21:53:22.539Z,23.43
2023-08-11T21:56:17.567Z,23.38
2023-08-11T21:59:23.740Z,23.34
2023-08-11T22:02:29.364Z,23.44
2023-08-11T22:05:45.981Z,23.59
2023-08-11T22:08:51.747Z,23.48
2023-08-11T22:11:51.450Z,23.35
2023-08-11T22:14:58.762Z,23.23
2023-08-11T22:18:03.801Z,23.00
2023-08-11T22:21:12.480Z,23.22
2023-08-11T22:24:27.127Z,23.27
2023-08-11T22:27:25.574Z,22.99
2023-08-11T22:30:31.683Z,23.04
2023-08-11T22:33:37.710Z,23.12
2023-08-11T22:36:42.954Z,22.84
2023-08-11T22:39:48.531Z,23.11
2023-08-11T22:42:54.753Z,23.19
2023-08-11T22:46:01.134Z,22.96
2023-08-11T22:49:07.118Z,23.02
2023-08-11T22:52:13.035Z,23.03
2023-08-11T22:55:19.687Z,23.19
2023-08-11T22:58:25.545Z,23.29
2023-08-11T23:01:31.953Z,23.44
2023-08-11T23:04:38.405Z,22.94
2023-08-11T23:07:44.858Z,23.50
2023-08-11T23:10:50.641Z,23.37
2023-08-11T23:13:56.484Z,23.30
2023-08-11T23:17:02.238Z,23.41
2023-08-11T23:20:08.960Z,23.19
2023-08-11T23:23:15.583Z,23.26
2023-08-11T23:26:21.405Z,23.47
2023-08-11T23:29:27.507Z,23.49
2023-08-11T23:32:34.204Z,23.76
2023-08-11T23:35:40.571Z,23.55
2023-08-11T23:38:47.476Z,23.83
2023-08-11T23:41:53.572Z,23.84
2023-08-11T23:44:59.256Z,23.82
2023-08-11T23:48:04.790Z,23.81
2023-08-11T23:51:11.291Z,23.94
2023-08-11T23:54:16.256Z,24.76
2023-08-11T23:57:23.519Z,25.03
